Time;durP1;ratioP1;P1;durP2;ratioP2;P2;SDS_P1;SDS_P2;PMS_P1;PMS_P2;Temp;Humidity;BMP_temperature;BMP_pressure;BME280_temperature;BME280_humidity;BME280_pressure;Samples;Min_cycle;Max_cycle;Signal;HPM_P1;HPM_P2
2021/09/07 00:01:27;;;;;;;21.02;13.95;;;17.20;77.30;;;;;;5072823;28;20024;-47
2021/09/07 00:03:52;;;;;;;23.13;14.23;;;17.10;77.50;;;;;;5073042;28;20029;-46
2021/09/07 00:06:18;;;;;;;20.23;13.45;;;17.20;77.20;;;;;;5072847;28;20032;-48
2021/09/07 00:08:44;;;;;;;21.00;13.85;;;17.10;77.40;;;;;;5072681;28;20460;-46
2021/09/07 00:11:10;;;;;;;22.27;14.07;;;17.00;77.60;;;;;;5072942;28;20035;-47
2021/09/07 00:13:36;;;;;;;23.58;14.10;;;17.00;77.80;;;;;;5072697;28;20024;-46
2021/09/07 00:16:02;;;;;;;21.15;13.73;;;16.90;77.70;;;;;;5072713;28;20029;-47
2021/09/07 00:18:28;;;;;;;19.55;13.45;;;16.90;78.20;;;;;;5072587;28;20032;-48
2021/09/07 00:20:54;;;;;;;22.30;13.20;;;16.80;78.20;;;;;;5072313;28;20496;-46
2021/09/07 00:23:19;;;;;;;23.85;13.27;;;16.90;79.40;;;;;;5072634;28;20016;-48
2021/09/07 00:25:45;;;;;;;18.23;13.00;;;16.90;79.60;;;;;;5072802;28;20040;-48
2021/09/07 00:28:10;;;;;;;19.40;13.15;;;16.80;80.00;;;;;;5072806;28;20032;-47
2021/09/07 00:30:36;;;;;;;19.73;12.80;;;16.80;80.80;;;;;;5072758;28;20047;-46
2021/09/07 00:33:03;;;;;;;18.05;12.45;;;16.60;81.10;;;;;;5072539;28;20028;-50
2021/09/07 00:35:29;;;;;;;18.23;12.65;;;16.50;81.90;;;;;;5072421;28;20415;-49
2021/09/07 00:37:55;;;;;;;18.27;11.95;;;16.50;82.50;;;;;;5072613;28;20035;-47
2021/09/07 00:40:21;;;;;;;22.65;14.00;;;16.30;83.00;;;;;;5072311;28;20090;-48
2021/09/07 00:42:46;;;;;;;20.75;13.35;;;16.30;83.40;;;;;;5072331;28;20044;-46
2021/09/07 00:45:12;;;;;;;20.77;12.98;;;16.30;83.40;;;;;;5072599;28;20457;-46
2021/09/07 00:47:39;;;;;;;18.23;13.02;;;16.20;83.60;;;;;;5072143;28;20017;-47
2021/09/07 00:50:06;;;;;;;19.27;13.65;;;16.20;83.70;;;;;;5072284;28;20120;-51
2021/09/07 00:52:32;;;;;;;17.13;13.02;;;16.20;83.70;;;;;;5072190;28;20074;-46
2021/09/07 00:54:59;;;;;;;20.75;14.02;;;16.20;83.70;;;;;;5072426;28;20027;-48
2021/09/07 00:57:25;;;;;;;21.25;13.88;;;16.20;83.60;;;;;;5072401;28;20469;-47
2021/09/07 00:59:53;;;;;;;22.83;13.55;;;16.20;83.40;;;;;;5072146;28;20050;-47
2021/09/07 01:02:18;;;;;;;21.35;14.57;;;16.30;83.30;;;;;;5071816;28;20048;-48
2021/09/07 01:04:44;;;;;;;21.52;13.07;;;16.20;83.40;;;;;;5071873;28;20052;-48
2021/09/07 01:07:09;;;;;;;21.92;14.48;;;16.20;83.20;;;;;;5070436;28;20025;-47
2021/09/07 01:09:36;;;;;;;24.02;14.48;;;16.10;83.20;;;;;;5071729;28;20040;-47
2021/09/07 01:12:02;;;;;;;23.55;14.23;;;16.20;82.90;;;;;;5071705;28;20154;-47
2021/09/07 01:14:36;;;;;;;22.30;14.15;;;16.30;82.90;;;;;;5071949;28;20036;-47
2021/09/07 01:17:02;;;;;;;19.08;12.90;;;16.30;83.30;;;;;;5071630;28;20039;-47
2021/09/07 01:19:29;;;;;;;18.55;13.00;;;16.30;83.20;;;;;;5071224;28;20021;-48
2021/09/07 01:21:55;;;;;;;20.90;13.95;;;16.10;83.40;;;;;;5071682;28;20028;-47
2021/09/07 01:24:25;;;;;;;18.65;13.88;;;16.00;83.90;;;;;;5071777;28;20032;-47
2021/09/07 01:26:51;;;;;;;18.23;13.32;;;16.00;84.00;;;;;;5071441;28;20024;-47
2021/09/07 01:29:17;;;;;;;27.75;16.98;;;15.90;84.00;;;;;;5074822;28;20030;-46
2021/09/07 01:31:43;;;;;;;18.48;13.23;;;15.90;84.10;;;;;;5075140;28;20021;-47
2021/09/07 01:34:09;;;;;;;21.42;13.98;;;15.90;84.20;;;;;;5075372;28;20484;-46
2021/09/07 01:36:35;;;;;;;20.35;13.05;;;15.80;84.30;;;;;;5075153;28;20503;-47
2021/09/07 01:39:01;;;;;;;22.77;15.23;;;15.80;84.40;;;;;;5075545;28;20021;-51
2021/09/07 01:41:26;;;;;;;21.55;13.68;;;15.80;84.30;;;;;;5075301;28;20044;-46
2021/09/07 01:43:52;;;;;;;22.77;14.35;;;15.70;84.50;;;;;;5075300;28;20021;-46
2021/09/07 01:46:18;;;;;;;24.65;14.15;;;15.80;84.60;;;;;;5075303;28;20025;-51
2021/09/07 01:48:44;;;;;;;20.95;14.15;;;15.70;84.60;;;;;;5075327;28;20103;-47
2021/09/07 01:51:10;;;;;;;23.77;14.45;;;15.70;84.60;;;;;;5075519;28;20139;-47
2021/09/07 01:53:36;;;;;;;21.38;14.77;;;15.70;84.50;;;;;;5075197;28;20028;-49
2021/09/07 01:56:01;;;;;;;19.17;13.20;;;15.70;84.50;;;;;;5075120;28;20027;-46
2021/09/07 01:58:27;;;;;;;18.95;13.27;;;15.70;84.20;;;;;;5075149;28;20042;-47
2021/09/07 02:00:53;;;;;;;20.27;14.00;;;15.60;84.40;;;;;;5075238;28;20050;-47
2021/09/07 02:03:18;;;;;;;23.85;13.52;;;15.70;84.50;;;;;;5075590;28;20035;-48
2021/09/07 02:05:44;;;;;;;22.20;13.82;;;15.70;84.40;;;;;;5074982;28;20468;-46
2021/09/07 02:08:09;;;;;;;20.75;13.68;;;15.60;84.50;;;;;;5074926;28;20025;-47
2021/09/07 02:10:35;;;;;;;20.65;13.18;;;15.60;84.50;;;;;;5075120;28;20058;-47
2021/09/07 02:13:01;;;;;;;24.83;14.70;;;15.50;84.70;;;;;;5074777;28;20094;-50
2021/09/07 02:15:29;;;;;;;20.65;13.88;;;15.60;84.70;;;;;;5075019;28;20020;-47
2021/09/07 02:17:55;;;;;;;16.85;12.55;;;15.60;84.50;;;;;;5074694;28;20028;-46
2021/09/07 02:20:21;;;;;;;22.00;13.18;;;15.60;84.70;;;;;;5074252;28;20051;-46
2021/09/07 02:22:46;;;;;;;19.88;13.40;;;15.50;84.80;;;;;;5075062;28;20063;-46
2021/09/07 02:25:12;;;;;;;21.65;13.55;;;15.50;85.10;;;;;;5074577;28;20385;-47
2021/09/07 02:27:38;;;;;;;22.42;14.10;;;15.50;85.20;;;;;;5074434;28;20402;-47
2021/09/07 02:30:06;;;;;;;22.05;13.90;;;15.50;85.00;;;;;;5074429;28;20020;-47
2021/09/07 02:32:32;;;;;;;23.58;14.52;;;15.50;84.80;;;;;;5074401;28;20028;-46
2021/09/07 02:34:57;;;;;;;26.05;14.55;;;15.60;84.60;;;;;;5074629;28;20095;-48
2021/09/07 02:37:23;;;;;;;21.63;13.75;;;15.60;84.60;;;;;;5074502;28;20020;-47
2021/09/07 02:39:49;;;;;;;22.75;14.18;;;15.60;84.60;;;;;;5072840;28;20039;-48
2021/09/07 02:42:14;;;;;;;26.83;16.52;;;15.50;84.90;;;;;;5074319;28;20384;-46
2021/09/07 02:44:40;;;;;;;24.42;14.57;;;15.50;84.80;;;;;;5073255;28;20050;-47
2021/09/07 02:47:06;;;;;;;24.33;14.45;;;15.50;84.50;;;;;;5074043;28;20108;-46
2021/09/07 02:49:31;;;;;;;26.60;16.27;;;15.60;84.40;;;;;;5074304;28;20048;-47
2021/09/07 02:51:57;;;;;;;23.90;15.18;;;15.60;83.80;;;;;;5073991;28;20476;-51
2021/09/07 02:54:24;;;;;;;23.77;15.15;;;15.80;83.10;;;;;;5074151;28;20040;-48
2021/09/07 02:56:50;;;;;;;26.52;16.40;;;15.80;83.20;;;;;;5073938;28;20040;-46
2021/09/07 02:59:16;;;;;;;24.10;15.52;;;15.80;83.10;;;;;;5074042;28;20073;-46
2021/09/07 03:01:42;;;;;;;26.63;16.20;;;15.80;82.50;;;;;;5073660;28;20528;-46
2021/09/07 03:04:07;;;;;;;23.20;14.88;;;15.80;82.30;;;;;;5074012;28;20360;-48
2021/09/07 03:06:33;;;;;;;21.38;14.05;;;15.80;82.30;;;;;;5073881;28;20020;-46
2021/09/07 03:08:59;;;;;;;22.95;14.65;;;15.90;82.30;;;;;;5072327;28;20023;-48
2021/09/07 03:11:24;;;;;;;21.10;14.68;;;15.80;82.70;;;;;;5074096;28;20051;-49
2021/09/07 03:13:50;;;;;;;23.75;15.85;;;15.90;82.70;;;;;;5073957;28;20028;-46
2021/09/07 03:16:15;;;;;;;25.17;15.70;;;15.90;82.10;;;;;;5074514;28;20035;-51
2021/09/07 03:18:41;;;;;;;23.70;15.63;;;16.00;81.80;;;;;;5073853;28;20028;-47
2021/09/07 03:21:07;;;;;;;22.58;15.63;;;16.00;81.50;;;;;;5073473;28;20115;-48
2021/09/07 03:23:32;;;;;;;24.75;15.20;;;16.00;81.60;;;;;;5073923;28;20097;-46
2021/09/07 03:25:58;;;;;;;21.67;13.23;;;16.10;81.90;;;;;;5073539;28;20013;-46
2021/09/07 03:28:24;;;;;;;22.38;14.93;;;16.10;81.60;;;;;;5073771;28;20025;-51
2021/09/07 03:30:51;;;;;;;24.20;14.15;;;16.20;81.50;;;;;;5073318;28;20114;-46
2021/09/07 03:33:17;;;;;;;23.52;15.13;;;16.10;81.90;;;;;;5073505;28;20037;-48
2021/09/07 03:35:43;;;;;;;23.02;14.55;;;16.10;81.70;;;;;;5073082;28;20515;-48
2021/09/07 03:38:09;;;;;;;25.15;16.42;;;16.10;81.50;;;;;;5073365;28;20107;-47
2021/09/07 03:40:35;;;;;;;22.60;14.13;;;16.00;82.00;;;;;;5073458;28;20135;-47
2021/09/07 03:43:00;;;;;;;22.70;14.98;;;16.00;82.00;;;;;;5072927;28;20025;-47
2021/09/07 03:45:26;;;;;;;22.77;15.60;;;16.10;81.90;;;;;;5073068;28;20048;-47
2021/09/07 03:47:52;;;;;;;24.17;15.20;;;16.10;81.50;;;;;;5073063;28;20027;-47
2021/09/07 03:50:18;;;;;;;24.17;16.40;;;16.10;81.60;;;;;;5072567;28;20020;-46
2021/09/07 03:52:44;;;;;;;26.00;16.55;;;16.10;81.40;;;;;;5072954;28;20203;-50
2021/09/07 03:55:10;;;;;;;24.42;16.63;;;16.10;81.80;;;;;;5073210;28;20039;-46
2021/09/07 03:57:36;;;;;;;24.38;16.38;;;16.20;81.50;;;;;;5073337;28;20418;-48
2021/09/07 04:00:03;;;;;;;23.83;16.05;;;16.30;81.40;;;;;;5072943;28;20024;-47
2021/09/07 04:02:29;;;;;;;25.42;16.58;;;16.20;81.30;;;;;;5073303;28;20033;-46
2021/09/07 04:04:54;;;;;;;24.35;16.10;;;16.20;81.40;;;;;;5072824;28;20093;-46
2021/09/07 04:07:20;;;;;;;25.20;16.02;;;16.30;81.40;;;;;;5073096;28;20029;-48
2021/09/07 04:09:46;;;;;;;27.40;17.13;;;16.30;81.20;;;;;;5073078;28;20032;-48
2021/09/07 04:12:12;;;;;;;25.83;15.90;;;16.40;81.10;;;;;;5072731;28;20028;-47
2021/09/07 04:14:38;;;;;;;28.52;16.15;;;16.30;81.40;;;;;;5072657;28;20384;-45
2021/09/07 04:17:05;;;;;;;27.13;15.88;;;16.30;81.20;;;;;;5072496;28;20032;-46
2021/09/07 04:19:32;;;;;;;30.70;16.65;;;16.30;81.50;;;;;;5072227;28;20036;-46
2021/09/07 04:21:57;;;;;;;25.77;16.27;;;16.30;81.60;;;;;;5072317;28;20029;-47
2021/09/07 04:24:23;;;;;;;28.25;16.02;;;16.30;81.70;;;;;;5072582;28;20023;-46
2021/09/07 04:26:49;;;;;;;27.92;18.35;;;16.30;81.70;;;;;;5072748;28;20075;-46
2021/09/07 04:29:14;;;;;;;29.17;17.25;;;16.20;81.70;;;;;;5072560;28;20031;-48
2021/09/07 04:31:42;;;;;;;29.17;17.63;;;16.20;82.00;;;;;;5072109;28;20020;-46
2021/09/07 04:34:08;;;;;;;31.63;18.30;;;16.20;82.00;;;;;;5072769;28;20096;-48
2021/09/07 04:36:33;;;;;;;26.30;18.50;;;16.20;82.00;;;;;;5072447;28;20067;-47
2021/09/07 04:38:59;;;;;;;29.58;19.33;;;16.30;81.90;;;;;;5072435;28;20063;-48
2021/09/07 04:41:25;;;;;;;28.23;18.92;;;16.20;81.90;;;;;;5072535;28;20032;-47
2021/09/07 04:43:50;;;;;;;27.58;18.30;;;16.30;81.90;;;;;;5072525;28;20154;-47
2021/09/07 04:46:17;;;;;;;30.88;17.55;;;16.20;82.10;;;;;;5072364;28;20100;-47
2021/09/07 04:48:43;;;;;;;31.63;20.20;;;16.20;82.00;;;;;;5072215;28;20032;-49
2021/09/07 04:51:09;;;;;;;28.08;18.50;;;16.30;82.50;;;;;;5072294;28;20399;-48
2021/09/07 04:53:34;;;;;;;31.08;20.13;;;16.20;82.00;;;;;;5072531;28;20036;-49
2021/09/07 04:56:01;;;;;;;29.52;18.02;;;16.20;82.20;;;;;;5072254;28;20025;-47
2021/09/07 04:58:27;;;;;;;31.02;20.08;;;16.30;82.20;;;;;;5072326;28;20511;-48
2021/09/07 05:00:52;;;;;;;32.65;18.77;;;16.30;81.90;;;;;;5072670;28;20024;-48
2021/09/07 05:03:18;;;;;;;31.00;20.42;;;16.30;82.00;;;;;;5074129;28;20079;-48
2021/09/07 05:05:44;;;;;;;29.80;18.75;;;16.30;82.00;;;;;;5075986;28;20074;-49
2021/09/07 05:08:09;;;;;;;32.28;20.15;;;16.30;82.20;;;;;;5077033;28;20116;-46
2021/09/07 05:10:35;;;;;;;29.92;19.75;;;16.30;82.00;;;;;;5076180;28;20024;-47
2021/09/07 05:13:00;;;;;;;29.63;19.52;;;16.20;82.00;;;;;;5075935;28;20037;-47
2021/09/07 05:15:26;;;;;;;34.53;19.08;;;16.30;81.60;;;;;;5074414;28;20078;-46
2021/09/07 05:17:52;;;;;;;33.40;20.63;;;16.30;81.70;;;;;;5075622;28;20032;-46
2021/09/07 05:20:17;;;;;;;32.78;20.52;;;16.30;81.90;;;;;;5075461;28;20068;-47
2021/09/07 05:22:44;;;;;;;43.60;22.83;;;16.30;81.80;;;;;;5075551;28;20032;-49
2021/09/07 05:25:11;;;;;;;32.05;21.15;;;16.40;81.30;;;;;;5075862;28;20534;-46
2021/09/07 05:27:37;;;;;;;32.67;19.85;;;16.30;81.60;;;;;;5075824;28;20033;-49
2021/09/07 05:30:08;;;;;;;30.38;20.55;;;16.30;81.80;;;;;;5074375;28;20088;-45
2021/09/07 05:32:34;;;;;;;32.03;18.83;;;16.30;81.90;;;;;;5074056;28;20028;-49
2021/09/07 05:35:00;;;;;;;29.02;19.42;;;16.50;81.40;;;;;;5075677;28;20376;-47
2021/09/07 05:37:25;;;;;;;32.10;19.25;;;16.50;81.10;;;;;;5075656;28;20071;-47
2021/09/07 05:39:51;;;;;;;36.88;20.27;;;16.50;81.00;;;;;;5075118;28;20024;-49
2021/09/07 05:42:17;;;;;;;34.88;20.23;;;16.60;80.70;;;;;;5075500;28;20402;-48
2021/09/07 05:44:43;;;;;;;36.20;20.27;;;16.60;80.70;;;;;;5075449;28;20020;-47
2021/09/07 05:47:08;;;;;;;34.00;20.33;;;16.60;80.70;;;;;;5075282;28;20033;-48
2021/09/07 05:49:35;;;;;;;33.60;19.38;;;16.60;80.70;;;;;;5075247;28;20526;-47
2021/09/07 05:52:01;;;;;;;27.65;19.52;;;16.60;80.70;;;;;;5075255;28;20029;-48
2021/09/07 05:54:26;;;;;;;33.97;19.85;;;16.50;80.90;;;;;;5074713;28;20050;-48
2021/09/07 05:56:54;;;;;;;29.90;20.25;;;16.70;80.60;;;;;;5074820;28;20025;-48
2021/09/07 05:59:20;;;;;;;38.10;20.90;;;16.80;80.00;;;;;;5074851;28;20020;-47
2021/09/07 06:01:45;;;;;;;34.03;19.75;;;16.90;79.50;;;;;;5074936;28;20111;-49
2021/09/07 06:04:11;;;;;;;35.40;19.70;;;17.00;79.50;;;;;;5074661;28;20040;-48
2021/09/07 06:06:36;;;;;;;32.53;19.23;;;17.00;79.70;;;;;;5074753;28;20435;-48
2021/09/07 06:09:02;;;;;;;36.03;20.98;;;17.00;79.60;;;;;;5074715;28;20036;-48
2021/09/07 06:11:28;;;;;;;34.22;20.98;;;16.90;79.60;;;;;;5074459;28;20357;-47
2021/09/07 06:13:54;;;;;;;35.10;20.45;;;17.00;79.50;;;;;;5074359;28;20028;-48
2021/09/07 06:16:21;;;;;;;30.92;20.25;;;17.10;79.20;;;;;;5074273;28;20116;-48
2021/09/07 06:18:47;;;;;;;34.28;21.40;;;17.10;79.20;;;;;;5074382;28;20024;-48
2021/09/07 06:21:12;;;;;;;32.03;19.70;;;17.20;79.10;;;;;;5072785;28;20052;-49
2021/09/07 06:23:38;;;;;;;27.58;19.35;;;17.20;79.00;;;;;;5074702;28;20023;-48
2021/09/07 06:26:03;;;;;;;31.45;19.35;;;17.30;79.00;;;;;;5074260;28;20070;-49
2021/09/07 06:28:29;;;;;;;31.48;20.05;;;17.30;78.60;;;;;;5074022;28;20071;-48
2021/09/07 06:30:55;;;;;;;35.08;21.30;;;17.30;78.80;;;;;;5074044;28;20384;-47
2021/09/07 06:33:21;;;;;;;30.02;19.40;;;17.50;78.00;;;;;;5074748;28;20020;-47
2021/09/07 06:35:47;;;;;;;35.40;20.15;;;17.70;77.30;;;;;;5074285;28;20032;-49
2021/09/07 06:38:13;;;;;;;34.30;19.88;;;17.60;77.70;;;;;;5074480;28;20037;-50
2021/09/07 06:40:39;;;;;;;32.95;19.23;;;17.40;78.60;;;;;;5074429;28;20024;-47
2021/09/07 06:43:05;;;;;;;35.53;18.90;;;17.60;78.30;;;;;;5073952;28;20039;-46
2021/09/07 06:45:31;;;;;;;33.92;20.48;;;17.70;77.90;;;;;;5073911;28;20349;-48
2021/09/07 06:47:56;;;;;;;34.08;20.42;;;17.90;77.40;;;;;;5074072;28;20570;-47
2021/09/07 06:50:22;;;;;;;31.08;20.02;;;18.10;77.00;;;;;;5073696;28;20032;-47
2021/09/07 06:52:48;;;;;;;33.95;19.95;;;18.20;76.60;;;;;;5072276;28;20079;-50
2021/09/07 06:55:13;;;;;;;29.85;19.42;;;18.30;75.90;;;;;;5073616;28;20380;-48
2021/09/07 06:57:39;;;;;;;42.30;26.58;;;18.30;75.60;;;;;;5072439;28;20024;-50
2021/09/07 07:00:06;;;;;;;29.80;20.05;;;18.40;75.80;;;;;;5074101;28;20108;-51
2021/09/07 07:02:36;;;;;;;27.95;18.67;;;18.50;75.30;;;;;;5072794;28;20388;-51
2021/09/07 07:05:01;;;;;;;30.75;17.98;;;18.40;75.80;;;;;;5073505;28;20040;-49
2021/09/07 07:07:27;;;;;;;30.38;18.77;;;18.30;76.30;;;;;;5073771;28;20028;-49
2021/09/07 07:09:53;;;;;;;33.13;19.88;;;18.40;76.30;;;;;;5072682;28;20027;-52
2021/09/07 07:12:18;;;;;;;42.05;19.08;;;18.50;75.70;;;;;;5073301;28;20054;-48
2021/09/07 07:14:44;;;;;;;34.05;19.92;;;18.80;75.00;;;;;;5071898;28;20025;-51
2021/09/07 07:17:10;;;;;;;30.27;18.98;;;18.80;74.50;;;;;;5073207;28;20028;-52
2021/09/07 07:19:35;;;;;;;32.15;20.33;;;18.80;74.80;;;;;;5073594;28;20036;-48
2021/09/07 07:22:01;;;;;;;29.35;19.25;;;18.60;75.40;;;;;;5073362;28;20025;-51
2021/09/07 07:24:27;;;;;;;34.08;19.30;;;18.70;75.20;;;;;;5074207;28;20016;-49
2021/09/07 07:26:52;;;;;;;34.05;18.67;;;18.70;74.50;;;;;;5073192;28;20078;-51
2021/09/07 07:29:18;;;;;;;30.10;18.85;;;18.70;74.80;;;;;;5073266;28;20031;-47
2021/09/07 07:31:44;;;;;;;28.27;18.58;;;18.80;75.00;;;;;;5073333;28;20033;-54
2021/09/07 07:34:10;;;;;;;34.13;19.98;;;18.80;74.30;;;;;;5071331;28;20521;-49
2021/09/07 07:36:35;;;;;;;31.60;20.73;;;18.80;73.70;;;;;;5072673;28;20059;-47
2021/09/07 07:39:02;;;;;;;28.85;19.50;;;19.00;73.50;;;;;;5073321;28;20024;-51
2021/09/07 07:41:28;;;;;;;46.05;32.67;;;19.20;72.60;;;;;;5071834;28;20099;-52
2021/09/07 07:43:54;;;;;;;35.08;21.33;;;19.20;72.80;;;;;;5072636;28;20048;-48
2021/09/07 07:46:21;;;;;;;33.97;19.55;;;19.40;72.10;;;;;;5072449;28;20500;-47
2021/09/07 07:48:46;;;;;;;33.92;20.73;;;19.50;71.50;;;;;;5072622;28;20027;-47
2021/09/07 07:51:13;;;;;;;33.85;20.23;;;19.60;70.80;;;;;;5072280;28;20535;-49
2021/09/07 07:53:39;;;;;;;30.50;20.55;;;19.50;71.10;;;;;;5072599;28;20038;-47
2021/09/07 07:56:06;;;;;;;27.00;18.67;;;19.50;70.90;;;;;;5072133;28;20072;-48
2021/09/07 07:58:32;;;;;;;28.02;19.17;;;19.80;70.30;;;;;;5071836;28;20173;-49
2021/09/07 08:00:58;;;;;;;31.55;19.17;;;19.70;70.30;;;;;;5071997;28;20115;-48
2021/09/07 08:03:24;;;;;;;29.08;20.95;;;19.80;69.30;;;;;;5072708;28;20048;-49
2021/09/07 08:05:50;;;;;;;31.42;20.15;;;20.00;69.40;;;;;;5072425;28;20043;-47
2021/09/07 08:08:16;;;;;;;26.77;18.48;;;20.20;69.30;;;;;;5072563;28;20024;-50
2021/09/07 08:10:42;;;;;;;32.15;19.67;;;20.10;68.60;;;;;;5072404;28;20043;-48
2021/09/07 08:13:08;;;;;;;26.02;18.77;;;20.00;68.40;;;;;;5071713;28;20051;-47
2021/09/07 08:15:34;;;;;;;28.73;20.17;;;20.00;68.40;;;;;;5071870;28;20067;-49
2021/09/07 08:18:00;;;;;;;30.25;20.65;;;20.00;68.40;;;;;;5071966;28;20086;-48
2021/09/07 08:20:29;;;;;;;29.00;18.35;;;20.00;68.70;;;;;;5071482;28;20060;-47
2021/09/07 08:22:54;;;;;;;26.30;18.55;;;20.30;67.80;;;;;;5071951;28;20052;-50
2021/09/07 08:25:20;;;;;;;40.05;21.15;;;20.40;67.40;;;;;;5072061;28;20040;-50
2021/09/07 08:27:46;;;;;;;35.08;20.95;;;20.40;67.30;;;;;;5072564;28;20388;-47
2021/09/07 08:30:11;;;;;;;31.25;20.25;;;20.70;66.60;;;;;;5072010;28;20029;-49
2021/09/07 08:32:42;;;;;;;26.48;17.75;;;20.90;66.10;;;;;;5071655;28;20023;-51
2021/09/07 08:35:12;;;;;;;33.55;18.42;;;21.00;65.80;;;;;;5071632;28;20020;-49
2021/09/07 08:37:39;;;;;;;32.03;20.13;;;21.00;64.70;;;;;;5074051;28;20071;-50
2021/09/07 08:40:06;;;;;;;25.10;18.17;;;21.00;65.40;;;;;;5075862;28;20017;-48
2021/09/07 08:42:35;;;;;;;31.92;18.58;;;21.40;64.20;;;;;;5075665;28;20110;-51
2021/09/07 08:45:04;;;;;;;28.93;18.30;;;21.30;65.00;;;;;;5073892;28;20021;-47
2021/09/07 08:47:30;;;;;;;22.23;16.52;;;21.40;63.60;;;;;;5075516;28;20043;-48
2021/09/07 08:49:57;;;;;;;24.35;16.77;;;21.20;64.60;;;;;;5076160;28;20100;-48
2021/09/07 08:52:24;;;;;;;28.98;17.65;;;21.40;63.80;;;;;;5076292;28;20032;-51
2021/09/07 08:54:50;;;;;;;25.23;17.63;;;22.00;62.10;;;;;;5076180;28;20024;-51
2021/09/07 08:57:17;;;;;;;25.55;15.60;;;22.30;60.40;;;;;;5077350;28;20025;-50
2021/09/07 08:59:43;;;;;;;24.20;16.15;;;22.50;58.20;;;;;;5075856;28;20052;-50
2021/09/07 09:02:13;;;;;;;27.67;17.55;;;22.20;59.30;;;;;;5075604;28;20125;-47
2021/09/07 09:04:39;;;;;;;24.92;15.27;;;22.40;59.00;;;;;;5074890;28;20124;-49
2021/09/07 09:07:05;;;;;;;26.33;16.60;;;22.60;58.70;;;;;;5076062;28;20183;-47
2021/09/07 09:09:36;;;;;;;23.13;15.00;;;22.90;57.70;;;;;;5075502;28;20028;-49
2021/09/07 09:12:02;;;;;;;24.48;13.90;;;23.00;55.30;;;;;;5074443;28;20115;-47
2021/09/07 09:14:34;;;;;;;23.80;15.77;;;22.80;56.00;;;;;;5058489;28;20029;-48
2021/09/07 09:17:00;;;;;;;24.08;14.52;;;23.20;54.40;;;;;;5075384;28;20110;-48
2021/09/07 09:19:26;;;;;;;25.67;15.48;;;23.30;55.00;;;;;;5075516;28;20024;-49
2021/09/07 09:21:52;;;;;;;23.33;14.77;;;23.50;54.00;;;;;;5074813;28;20027;-50
2021/09/07 09:24:22;;;;;;;25.27;13.95;;;23.40;53.70;;;;;;5073663;28;20021;-47
2021/09/07 09:27:02;;;;;;;27.08;15.57;;;23.50;53.40;;;;;;5075173;28;20092;-48
2021/09/07 09:29:40;;;;;;;22.23;15.55;;;23.50;53.20;;;;;;5075848;28;20067;-48
2021/09/07 09:32:16;;;;;;;28.13;16.42;;;23.50;53.80;;;;;;5079103;28;20037;-48
2021/09/07 09:34:42;;;;;;;20.83;14.77;;;23.80;53.40;;;;;;5075322;28;20052;-48
2021/09/07 09:37:12;;;;;;;27.50;15.60;;;23.70;54.00;;;;;;5074931;28;20036;-49
2021/09/07 09:39:47;;;;;;;69.03;49.28;;;23.80;54.00;;;;;;5073436;28;20028;-47
2021/09/07 09:42:14;;;;;;;22.98;15.15;;;24.00;52.90;;;;;;5074625;28;20024;-49
2021/09/07 09:44:40;;;;;;;24.25;14.40;;;24.00;51.70;;;;;;5074295;28;20052;-49
2021/09/07 09:47:06;;;;;;;22.58;14.57;;;24.60;50.10;;;;;;5074544;28;20051;-49
2021/09/07 09:49:33;;;;;;;25.70;14.40;;;24.80;49.60;;;;;;5073525;28;20017;-48
2021/09/07 09:52:07;;;;;;;18.92;14.13;;;25.00;48.80;;;;;;5073314;28;20028;-48
2021/09/07 09:54:35;;;;;;;18.15;11.43;;;25.00;46.50;;;;;;5074456;28;20066;-48
2021/09/07 09:57:04;;;;;;;22.15;13.70;;;25.20;44.80;;;;;;5074615;28;20028;-48
2021/09/07 09:59:31;;;;;;;20.73;13.10;;;25.10;46.50;;;;;;5074867;28;20021;-47
2021/09/07 10:01:58;;;;;;;22.70;13.35;;;25.20;45.20;;;;;;5074865;28;20177;-51
2021/09/07 10:04:26;;;;;;;16.70;12.40;;;24.80;46.20;;;;;;5074332;28;20021;-48
2021/09/07 10:06:52;;;;;;;20.83;13.38;;;24.70;46.20;;;;;;5074007;28;20028;-49
2021/09/07 10:09:19;;;;;;;18.52;12.70;;;24.70;47.20;;;;;;5074098;28;20020;-49
2021/09/07 10:12:08;;;;;;;23.48;13.25;;;24.70;46.30;;;;;;5072825;28;20029;-51
2021/09/07 10:14:36;;;;;;;17.70;12.55;;;24.30;47.90;;;;;;5073767;28;20037;-48
2021/09/07 10:17:26;;;;;;;19.95;13.52;;;23.90;49.90;;;;;;5074330;28;20024;-49
2021/09/07 10:20:00;;;;;;;19.13;12.68;;;24.00;49.40;;;;;;5073703;28;20123;-48
2021/09/07 10:25:48;;;;;;;21.83;14.32;;;24.00;50.20;;;;;;5073778;28;20070;-47
2021/09/07 10:28:32;;;;;;;21.73;13.13;;;24.50;48.70;;;;;;5072299;28;20060;-49
2021/09/07 10:30:58;;;;;;;23.50;13.18;;;25.40;45.80;;;;;;5073856;28;20028;-47
2021/09/07 10:33:34;;;;;;;22.45;11.15;;;25.30;44.70;;;;;;5073733;28;20025;-48
2021/09/07 10:36:16;;;;;;;23.73;13.77;;;25.10;45.30;;;;;;5074248;28;20028;-51
2021/09/07 10:38:44;;;;;;;18.60;10.65;;;25.70;43.70;;;;;;5073739;28;20145;-47
2021/09/07 10:41:30;;;;;;;19.70;10.95;;;27.30;40.90;;;;;;5074181;28;20033;-47
2021/09/07 10:44:06;;;;;;;21.00;12.95;;;27.70;39.70;;;;;;5074045;28;20128;-48
2021/09/07 10:46:45;;;;;;;16.80;12.60;;;27.60;38.90;;;;;;5074184;28;20028;-49
2021/09/07 10:49:24;;;;;;;18.73;11.10;;;26.50;40.30;;;;;;5072570;28;20119;-50
2021/09/07 10:52:20;;;;;;;20.58;11.18;;;27.00;39.60;;;;;;5072551;28;20329;-48
2021/09/07 10:54:47;;;;;;;15.18;10.35;;;27.10;39.70;;;;;;5073132;28;20078;-48
2021/09/07 10:57:34;;;;;;;15.88;10.55;;;27.70;38.20;;;;;;5073235;28;20063;-49
2021/09/07 11:00:04;;;;;;;21.35;11.45;;;27.30;38.80;;;;;;5072805;28;20126;-48
2021/09/07 11:02:34;;;;;;;15.90;9.65;;;27.90;38.80;;;;;;5074014;28;20020;-50
2021/09/07 11:05:03;;;;;;;18.77;12.50;;;28.50;36.00;;;;;;5073632;28;20090;-48
2021/09/07 11:07:47;;;;;;;19.90;10.93;;;28.70;37.50;;;;;;5073291;28;20144;-48
2021/09/07 11:10:19;;;;;;;18.42;10.10;;;28.70;37.20;;;;;;5072083;28;20114;-48
2021/09/07 11:12:58;;;;;;;18.02;10.75;;;28.60;37.40;;;;;;5071419;28;20027;-50
2021/09/07 11:15:30;;;;;;;24.58;10.93;;;29.20;35.90;;;;;;5072746;28;20442;-53
2021/09/07 11:17:58;;;;;;;14.95;10.63;;;29.20;35.10;;;;;;5071385;28;20388;-52
2021/09/07 11:20:30;;;;;;;16.10;9.32;;;29.30;35.00;;;;;;5072907;28;20044;-52
2021/09/07 11:22:59;;;;;;;16.67;10.43;;;29.40;34.40;;;;;;5073421;28;20033;-50
2021/09/07 11:25:26;;;;;;;14.40;10.05;;;29.40;34.10;;;;;;5073379;28;20051;-50
2021/09/07 11:27:54;;;;;;;19.05;10.70;;;29.40;34.30;;;;;;5073761;28;20453;-51
2021/09/07 11:30:21;;;;;;;17.52;10.77;;;29.50;34.40;;;;;;5071640;28;20043;-47
2021/09/07 11:32:47;;;;;;;16.60;12.18;;;29.20;33.90;;;;;;5072794;28;20032;-51
2021/09/07 11:35:13;;;;;;;17.00;11.13;;;29.20;34.10;;;;;;5073176;28;20021;-51
2021/09/07 11:37:39;;;;;;;18.02;12.43;;;29.60;33.70;;;;;;5072859;28;20031;-48
2021/09/07 11:40:16;;;;;;;18.45;13.93;;;30.20;32.90;;;;;;5072853;28;20036;-48
2021/09/07 11:42:43;;;;;;;23.02;14.07;;;29.30;34.40;;;;;;5072833;28;20318;-48
2021/09/07 11:45:15;;;;;;;16.73;12.85;;;28.80;35.10;;;;;;5072402;28;20069;-48
2021/09/07 11:47:44;;;;;;;18.00;12.40;;;29.30;34.40;;;;;;5071508;28;20021;-51
2021/09/07 11:50:18;;;;;;;20.23;11.83;;;29.40;34.00;;;;;;5072674;28;20038;-49
2021/09/07 11:52:50;;;;;;;16.60;12.95;;;28.80;35.60;;;;;;5072647;28;20029;-48
2021/09/07 11:55:38;;;;;;;17.48;11.15;;;28.80;34.70;;;;;;5072461;28;20028;-49
2021/09/07 11:58:17;;;;;;;15.73;11.75;;;29.20;34.50;;;;;;5072091;28;20025;-52
2021/09/07 12:01:02;;;;;;;18.38;11.52;;;29.70;33.20;;;;;;5073362;28;20138;-50
2021/09/07 12:03:35;;;;;;;16.02;11.43;;;28.70;34.70;;;;;;5072490;28;20449;-48
2021/09/07 12:06:01;;;;;;;29.13;11.95;;;28.60;35.80;;;;;;5072122;28;20051;-50
2021/09/07 12:08:34;;;;;;;13.55;10.18;;;28.90;34.00;;;;;;5072089;28;20020;-50
2021/09/07 12:11:00;;;;;;;19.02;11.40;;;29.20;33.90;;;;;;5072325;28;20025;-47
2021/09/07 12:13:26;;;;;;;18.23;12.60;;;29.10;34.90;;;;;;5071919;28;20035;-49
2021/09/07 12:15:51;;;;;;;19.45;13.32;;;29.10;34.80;;;;;;5071902;28;20020;-48
2021/09/07 12:18:35;;;;;;;15.02;9.95;;;28.90;34.40;;;;;;5072082;28;20496;-47
2021/09/07 12:21:07;;;;;;;16.30;11.57;;;29.10;35.00;;;;;;5072577;28;20052;-50
2021/09/07 12:23:36;;;;;;;15.52;11.18;;;29.10;35.90;;;;;;5072199;28;20048;-49
2021/09/07 12:26:03;;;;;;;19.83;12.75;;;29.40;35.10;;;;;;5073484;28;20029;-48
2021/09/07 12:28:32;;;;;;;15.60;10.57;;;29.70;34.70;;;;;;5072436;28;20482;-49
2021/09/07 12:31:20;;;;;;;18.45;10.73;;;29.60;34.60;;;;;;5072202;28;20024;-46
2021/09/07 12:33:52;;;;;;;14.73;10.48;;;29.40;34.30;;;;;;5073239;28;20477;-50